<?xml version="1.0" encoding="UTF-8" standalone="no" ?>
<gpx xmlns="http://www.topografix.com/GPX/1/1" xmlns:xsi="http://www.w3.org/2001/XMLSchema-instance" xsi:schemaLocation="http://www.topografix.com/GPX/1/1 http://www.topografix.com/GPX/1/1/gpx.xsd" version="1.1" creator="VisuGPX - https://www.visugpx.com">
  <metadata>
    <name>R 043 Calvaire </name>
  </metadata>
  <trk>
    <name><![CDATA[R 043 Calvaire _1]]></name>
    <trkseg>
      <trkpt lat="46.45757" lon="-1.65484">
        <ele>24.6</ele>
        <time>2019-10-25T12:39:58Z</time>
      </trkpt>
      <trkpt lat="46.45757" lon="-1.65484">
        <ele>24.6</ele>
        <time>2019-10-25T12:39:58Z</time>
      </trkpt>
      <trkpt lat="46.45712" lon="-1.6571">
        <ele>23.3</ele>
        <time>2019-10-25T12:46:17Z</time>
      </trkpt>
      <trkpt lat="46.45738" lon="-1.65738">
        <ele>73</ele>
        <time>2019-10-25T12:46:52Z</time>
      </trkpt>
      <trkpt lat="46.45754" lon="-1.65753">
        <ele>73</ele>
        <time>2019-10-25T12:47:52Z</time>
      </trkpt>
      <trkpt lat="46.45778" lon="-1.65773">
        <ele>74</ele>
        <time>2019-10-25T12:49:49Z</time>
      </trkpt>
      <trkpt lat="46.45803" lon="-1.65814">
        <ele>75</ele>
        <time>2019-10-25T12:50:52Z</time>
      </trkpt>
      <trkpt lat="46.45828" lon="-1.65858">
        <ele>74</ele>
        <time>2019-10-25T12:51:28Z</time>
      </trkpt>
      <trkpt lat="46.45854" lon="-1.6585">
        <ele>74</ele>
        <time>2019-10-25T12:52:03Z</time>
      </trkpt>
      <trkpt lat="46.4589" lon="-1.65836">
        <ele>72</ele>
        <time>2019-10-25T12:52:36Z</time>
      </trkpt>
      <trkpt lat="46.45927" lon="-1.65821">
        <ele>70</ele>
        <time>2019-10-25T12:53:04Z</time>
      </trkpt>
      <trkpt lat="46.45966" lon="-1.65813">
        <ele>75</ele>
        <time>2019-10-25T12:54:16Z</time>
      </trkpt>
      <trkpt lat="46.45992" lon="-1.65796">
        <ele>76</ele>
        <time>2019-10-25T12:54:41Z</time>
      </trkpt>
      <trkpt lat="46.46027" lon="-1.65773">
        <ele>73</ele>
        <time>2019-10-25T12:55:17Z</time>
      </trkpt>
      <trkpt lat="46.46063" lon="-1.65757">
        <ele>76</ele>
        <time>2019-10-25T12:55:42Z</time>
      </trkpt>
      <trkpt lat="46.46098" lon="-1.65737">
        <ele>76</ele>
        <time>2019-10-25T12:57:10Z</time>
      </trkpt>
      <trkpt lat="46.46126" lon="-1.65724">
        <ele>75</ele>
        <time>2019-10-25T12:57:35Z</time>
      </trkpt>
      <trkpt lat="46.46162" lon="-1.65704">
        <ele>74</ele>
        <time>2019-10-25T12:58:13Z</time>
      </trkpt>
      <trkpt lat="46.462" lon="-1.65687">
        <ele>79</ele>
        <time>2019-10-25T12:58:49Z</time>
      </trkpt>
      <trkpt lat="46.46226" lon="-1.65683">
        <ele>28</ele>
        <time>2019-10-25T12:59:19Z</time>
      </trkpt>
      <trkpt lat="46.46223" lon="-1.65717">
        <ele>26.8</ele>
        <time>2019-10-25T12:59:46Z</time>
      </trkpt>
      <trkpt lat="46.46199" lon="-1.65863">
        <ele>19</ele>
        <time>2019-10-25T13:00:25Z</time>
      </trkpt>
      <trkpt lat="46.462" lon="-1.66008">
        <ele>11.8</ele>
        <time>2019-10-25T13:00:53Z</time>
      </trkpt>
      <trkpt lat="46.46201" lon="-1.66015">
        <ele>55</ele>
        <time>2019-10-25T13:01:19Z</time>
      </trkpt>
      <trkpt lat="46.46201" lon="-1.66015">
        <ele>55</ele>
        <time>2019-10-25T13:01:36Z</time>
      </trkpt>
      <trkpt lat="46.46211" lon="-1.66278">
        <ele>64</ele>
        <time>2019-10-25T13:02:05Z</time>
      </trkpt>
      <trkpt lat="46.46212" lon="-1.66333">
        <ele>67</ele>
        <time>2019-10-25T13:02:35Z</time>
      </trkpt>
      <trkpt lat="46.46212" lon="-1.66376">
        <ele>20</ele>
        <time>2019-10-25T13:04:17Z</time>
      </trkpt>
      <trkpt lat="46.46245" lon="-1.66362">
        <ele>64</ele>
        <time>2019-10-25T13:04:46Z</time>
      </trkpt>
      <trkpt lat="46.46293" lon="-1.66341">
        <ele>20</ele>
        <time>2019-10-25T13:05:17Z</time>
      </trkpt>
      <trkpt lat="46.46339" lon="-1.66344">
        <ele>18.4</ele>
        <time>2019-10-25T13:05:38Z</time>
      </trkpt>
      <trkpt lat="46.46351" lon="-1.66342">
        <ele>65</ele>
        <time>2019-10-25T13:06:09Z</time>
      </trkpt>
      <trkpt lat="46.46363" lon="-1.66374">
        <ele>65</ele>
        <time>2019-10-25T13:06:40Z</time>
      </trkpt>
      <trkpt lat="46.46388" lon="-1.66415">
        <ele>59</ele>
        <time>2019-10-25T13:07:15Z</time>
      </trkpt>
      <trkpt lat="46.46409" lon="-1.66463">
        <ele>66</ele>
        <time>2019-10-25T13:07:42Z</time>
      </trkpt>
      <trkpt lat="46.46433" lon="-1.66507">
        <ele>69</ele>
        <time>2019-10-25T13:08:21Z</time>
      </trkpt>
      <trkpt lat="46.4645" lon="-1.66543">
        <ele>68</ele>
        <time>2019-10-25T13:08:54Z</time>
      </trkpt>
      <trkpt lat="46.46499" lon="-1.66623">
        <ele>77</ele>
        <time>2019-10-25T13:09:28Z</time>
      </trkpt>
      <trkpt lat="46.46516" lon="-1.66641">
        <ele>76</ele>
        <time>2019-10-25T13:09:48Z</time>
      </trkpt>
      <trkpt lat="46.46547" lon="-1.66676">
        <ele>79</ele>
        <time>2019-10-25T13:10:27Z</time>
      </trkpt>
      <trkpt lat="46.46569" lon="-1.667">
        <ele>75</ele>
        <time>2019-10-25T13:10:57Z</time>
      </trkpt>
      <trkpt lat="46.46612" lon="-1.66743">
        <ele>28.1</ele>
        <time>2019-10-25T13:11:30Z</time>
      </trkpt>
      <trkpt lat="46.466" lon="-1.66801">
        <ele>77</ele>
        <time>2019-10-25T13:11:52Z</time>
      </trkpt>
      <trkpt lat="46.46596" lon="-1.66842">
        <ele>75</ele>
        <time>2019-10-25T13:12:23Z</time>
      </trkpt>
      <trkpt lat="46.46583" lon="-1.66892">
        <ele>72</ele>
        <time>2019-10-25T13:12:53Z</time>
      </trkpt>
      <trkpt lat="46.46571" lon="-1.66944">
        <ele>65</ele>
        <time>2019-10-25T13:13:25Z</time>
      </trkpt>
      <trkpt lat="46.46559" lon="-1.66997">
        <ele>65</ele>
        <time>2019-10-25T13:13:50Z</time>
      </trkpt>
      <trkpt lat="46.46535" lon="-1.67023">
        <ele>68</ele>
        <time>2019-10-25T13:14:25Z</time>
      </trkpt>
      <trkpt lat="46.46496" lon="-1.6703">
        <ele>66</ele>
        <time>2019-10-25T13:14:56Z</time>
      </trkpt>
      <trkpt lat="46.46457" lon="-1.67038">
        <ele>67</ele>
        <time>2019-10-25T13:16:59Z</time>
      </trkpt>
      <trkpt lat="46.46417" lon="-1.67046">
        <ele>71</ele>
        <time>2019-10-25T13:17:24Z</time>
      </trkpt>
      <trkpt lat="46.46387" lon="-1.6705">
        <ele>76</ele>
        <time>2019-10-25T13:17:58Z</time>
      </trkpt>
      <trkpt lat="46.46348" lon="-1.67059">
        <ele>77</ele>
        <time>2019-10-25T13:18:28Z</time>
      </trkpt>
      <trkpt lat="46.46311" lon="-1.67064">
        <ele>78</ele>
        <time>2019-10-25T13:19:00Z</time>
      </trkpt>
      <trkpt lat="46.46287" lon="-1.67062">
        <ele>27.1</ele>
        <time>2019-10-25T13:19:21Z</time>
      </trkpt>
      <trkpt lat="46.46309" lon="-1.67104">
        <ele>77</ele>
        <time>2019-10-25T13:20:03Z</time>
      </trkpt>
      <trkpt lat="46.46335" lon="-1.67144">
        <ele>75</ele>
        <time>2019-10-25T13:20:37Z</time>
      </trkpt>
      <trkpt lat="46.46353" lon="-1.67194">
        <ele>71</ele>
        <time>2019-10-25T13:21:09Z</time>
      </trkpt>
      <trkpt lat="46.46365" lon="-1.67232">
        <ele>72</ele>
        <time>2019-10-25T13:21:34Z</time>
      </trkpt>
      <trkpt lat="46.46378" lon="-1.67282">
        <ele>73</ele>
        <time>2019-10-25T13:22:08Z</time>
      </trkpt>
      <trkpt lat="46.46394" lon="-1.67334">
        <ele>72</ele>
        <time>2019-10-25T13:22:36Z</time>
      </trkpt>
      <trkpt lat="46.46412" lon="-1.67383">
        <ele>72</ele>
        <time>2019-10-25T13:23:20Z</time>
      </trkpt>
      <trkpt lat="46.46421" lon="-1.67422">
        <ele>73</ele>
        <time>2019-10-25T13:23:46Z</time>
      </trkpt>
      <trkpt lat="46.46441" lon="-1.67475">
        <ele>69</ele>
        <time>2019-10-25T13:24:19Z</time>
      </trkpt>
      <trkpt lat="46.46457" lon="-1.67529">
        <ele>70</ele>
        <time>2019-10-25T13:24:52Z</time>
      </trkpt>
      <trkpt lat="46.46472" lon="-1.67582">
        <ele>74</ele>
        <time>2019-10-25T13:25:20Z</time>
      </trkpt>
      <trkpt lat="46.46475" lon="-1.67598">
        <ele>73</ele>
        <time>2019-10-25T13:25:54Z</time>
      </trkpt>
      <trkpt lat="46.46485" lon="-1.67654">
        <ele>70</ele>
        <time>2019-10-25T13:26:29Z</time>
      </trkpt>
      <trkpt lat="46.46495" lon="-1.67708">
        <ele>72</ele>
        <time>2019-10-25T13:27:05Z</time>
      </trkpt>
      <trkpt lat="46.46503" lon="-1.67763">
        <ele>75</ele>
        <time>2019-10-25T13:27:33Z</time>
      </trkpt>
      <trkpt lat="46.46504" lon="-1.67804">
        <ele>75</ele>
        <time>2019-10-25T13:28:03Z</time>
      </trkpt>
      <trkpt lat="46.46502" lon="-1.67858">
        <ele>73</ele>
        <time>2019-10-25T13:28:31Z</time>
      </trkpt>
      <trkpt lat="46.46497" lon="-1.67912">
        <ele>74</ele>
        <time>2019-10-25T13:29:24Z</time>
      </trkpt>
      <trkpt lat="46.46487" lon="-1.67964">
        <ele>75</ele>
        <time>2019-10-25T13:29:52Z</time>
      </trkpt>
      <trkpt lat="46.46482" lon="-1.68005">
        <ele>72</ele>
        <time>2019-10-25T13:30:21Z</time>
      </trkpt>
      <trkpt lat="46.46484" lon="-1.68062">
        <ele>75</ele>
        <time>2019-10-25T13:30:56Z</time>
      </trkpt>
      <trkpt lat="46.46481" lon="-1.68117">
        <ele>80</ele>
        <time>2019-10-25T13:31:30Z</time>
      </trkpt>
      <trkpt lat="46.4648" lon="-1.68155">
        <ele>27.4</ele>
        <time>2019-10-25T13:31:54Z</time>
      </trkpt>
      <trkpt lat="46.46472" lon="-1.68208">
        <ele>26.7</ele>
        <time>2019-10-25T13:32:29Z</time>
      </trkpt>
      <trkpt lat="46.46457" lon="-1.68264">
        <ele>26</ele>
        <time>2019-10-25T13:33:01Z</time>
      </trkpt>
      <trkpt lat="46.46447" lon="-1.68318">
        <ele>76</ele>
        <time>2019-10-25T13:33:35Z</time>
      </trkpt>
      <trkpt lat="46.46437" lon="-1.68355">
        <ele>74</ele>
        <time>2019-10-25T13:34:08Z</time>
      </trkpt>
      <trkpt lat="46.46425" lon="-1.68408">
        <ele>70</ele>
        <time>2019-10-25T13:34:40Z</time>
      </trkpt>
      <trkpt lat="46.46417" lon="-1.68461">
        <ele>73</ele>
        <time>2019-10-25T13:35:09Z</time>
      </trkpt>
      <trkpt lat="46.46408" lon="-1.68515">
        <ele>75</ele>
        <time>2019-10-25T13:35:31Z</time>
      </trkpt>
      <trkpt lat="46.46408" lon="-1.68537">
        <ele>76</ele>
        <time>2019-10-25T13:36:05Z</time>
      </trkpt>
      <trkpt lat="46.46406" lon="-1.68592">
        <ele>75</ele>
        <time>2019-10-25T13:36:41Z</time>
      </trkpt>
      <trkpt lat="46.46399" lon="-1.68647">
        <ele>75</ele>
        <time>2019-10-25T13:37:13Z</time>
      </trkpt>
      <trkpt lat="46.46392" lon="-1.687">
        <ele>73</ele>
        <time>2019-10-25T13:37:40Z</time>
      </trkpt>
      <trkpt lat="46.46395" lon="-1.68742">
        <ele>72</ele>
        <time>2019-10-25T13:38:14Z</time>
      </trkpt>
      <trkpt lat="46.46404" lon="-1.68796">
        <ele>70</ele>
        <time>2019-10-25T13:38:49Z</time>
      </trkpt>
      <trkpt lat="46.46401" lon="-1.68827">
        <ele>75</ele>
        <time>2019-10-25T13:39:18Z</time>
      </trkpt>
      <trkpt lat="46.46398" lon="-1.68884">
        <ele>76</ele>
        <time>2019-10-25T13:39:41Z</time>
      </trkpt>
      <trkpt lat="46.46396" lon="-1.68926">
        <ele>77</ele>
        <time>2019-10-25T13:40:13Z</time>
      </trkpt>
      <trkpt lat="46.46402" lon="-1.68982">
        <ele>73</ele>
        <time>2019-10-25T13:40:46Z</time>
      </trkpt>
      <trkpt lat="46.46404" lon="-1.69037">
        <ele>76</ele>
        <time>2019-10-25T13:41:18Z</time>
      </trkpt>
      <trkpt lat="46.464" lon="-1.69073">
        <ele>73</ele>
        <time>2019-10-25T13:41:40Z</time>
      </trkpt>
      <trkpt lat="46.46361" lon="-1.69066">
        <ele>74</ele>
        <time>2019-10-25T13:42:13Z</time>
      </trkpt>
      <trkpt lat="46.46324" lon="-1.6905">
        <ele>73</ele>
        <time>2019-10-25T13:42:46Z</time>
      </trkpt>
      <trkpt lat="46.46286" lon="-1.69045">
        <ele>72</ele>
        <time>2019-10-25T13:43:10Z</time>
      </trkpt>
      <trkpt lat="46.46257" lon="-1.69047">
        <ele>69</ele>
        <time>2019-10-25T13:43:43Z</time>
      </trkpt>
      <trkpt lat="46.46219" lon="-1.69056">
        <ele>70</ele>
        <time>2019-10-25T13:48:34Z</time>
      </trkpt>
      <trkpt lat="46.462" lon="-1.69064">
        <ele>74</ele>
        <time>2019-10-25T13:49:00Z</time>
      </trkpt>
      <trkpt lat="46.46164" lon="-1.69084">
        <ele>78</ele>
        <time>2019-10-25T13:49:32Z</time>
      </trkpt>
      <trkpt lat="46.46137" lon="-1.69096">
        <ele>76</ele>
        <time>2019-10-25T13:50:05Z</time>
      </trkpt>
      <trkpt lat="46.46103" lon="-1.69118">
        <ele>78</ele>
        <time>2019-10-25T13:50:37Z</time>
      </trkpt>
      <trkpt lat="46.46074" lon="-1.69153">
        <ele>79</ele>
        <time>2019-10-25T13:51:00Z</time>
      </trkpt>
      <trkpt lat="46.4604" lon="-1.69181">
        <ele>76</ele>
        <time>2019-10-25T13:51:36Z</time>
      </trkpt>
      <trkpt lat="46.46014" lon="-1.692">
        <ele>77</ele>
        <time>2019-10-25T13:52:13Z</time>
      </trkpt>
      <trkpt lat="46.45979" lon="-1.69217">
        <ele>77</ele>
        <time>2019-10-25T13:52:49Z</time>
      </trkpt>
      <trkpt lat="46.45944" lon="-1.69231">
        <ele>75</ele>
        <time>2019-10-25T13:53:15Z</time>
      </trkpt>
      <trkpt lat="46.45938" lon="-1.69191">
        <ele>65</ele>
        <time>2019-10-25T13:53:48Z</time>
      </trkpt>
      <trkpt lat="46.45923" lon="-1.69139">
        <ele>58</ele>
        <time>2019-10-25T13:54:21Z</time>
      </trkpt>
      <trkpt lat="46.45909" lon="-1.69088">
        <ele>60</ele>
        <time>2019-10-25T13:55:16Z</time>
      </trkpt>
      <trkpt lat="46.45894" lon="-1.69038">
        <ele>70</ele>
        <time>2019-10-25T13:55:55Z</time>
      </trkpt>
      <trkpt lat="46.45881" lon="-1.69001">
        <ele>72</ele>
        <time>2019-10-25T13:57:27Z</time>
      </trkpt>
      <trkpt lat="46.45868" lon="-1.68948">
        <ele>76</ele>
        <time>2019-10-25T14:00:52Z</time>
      </trkpt>
      <trkpt lat="46.45858" lon="-1.68895">
        <ele>74</ele>
        <time>2019-10-25T14:15:50Z</time>
      </trkpt>
      <trkpt lat="46.45842" lon="-1.68846">
        <ele>73</ele>
        <time>2019-10-25T14:16:19Z</time>
      </trkpt>
      <trkpt lat="46.45834" lon="-1.68808">
        <ele>71</ele>
        <time>2019-10-25T14:16:44Z</time>
      </trkpt>
      <trkpt lat="46.45815" lon="-1.6876">
        <ele>67</ele>
        <time>2019-10-25T14:17:13Z</time>
      </trkpt>
      <trkpt lat="46.45793" lon="-1.68712">
        <ele>63</ele>
        <time>2019-10-25T14:17:44Z</time>
      </trkpt>
      <trkpt lat="46.45776" lon="-1.68662">
        <ele>60</ele>
        <time>2019-10-25T14:18:16Z</time>
      </trkpt>
      <trkpt lat="46.45756" lon="-1.68632">
        <ele>62</ele>
        <time>2019-10-25T14:18:38Z</time>
      </trkpt>
      <trkpt lat="46.4573" lon="-1.6859">
        <ele>61</ele>
        <time>2019-10-25T14:19:10Z</time>
      </trkpt>
      <trkpt lat="46.45712" lon="-1.68543">
        <ele>63</ele>
        <time>2019-10-25T14:19:42Z</time>
      </trkpt>
      <trkpt lat="46.45692" lon="-1.68496">
        <ele>63</ele>
        <time>2019-10-25T14:20:10Z</time>
      </trkpt>
      <trkpt lat="46.4568" lon="-1.68458">
        <ele>66</ele>
        <time>2019-10-25T14:20:50Z</time>
      </trkpt>
      <trkpt lat="46.45665" lon="-1.68407">
        <ele>71</ele>
        <time>2019-10-25T14:21:23Z</time>
      </trkpt>
      <trkpt lat="46.45651" lon="-1.68356">
        <ele>67</ele>
        <time>2019-10-25T14:22:00Z</time>
      </trkpt>
      <trkpt lat="46.45644" lon="-1.68315">
        <ele>68</ele>
        <time>2019-10-25T14:22:24Z</time>
      </trkpt>
      <trkpt lat="46.45631" lon="-1.68261">
        <ele>68</ele>
        <time>2019-10-25T14:22:55Z</time>
      </trkpt>
      <trkpt lat="46.45614" lon="-1.68213">
        <ele>23.1</ele>
        <time>2019-10-25T14:23:26Z</time>
      </trkpt>
      <trkpt lat="46.45649" lon="-1.68186">
        <ele>74</ele>
        <time>2019-10-25T14:23:58Z</time>
      </trkpt>
      <trkpt lat="46.45672" lon="-1.6816">
        <ele>71</ele>
        <time>2019-10-25T14:24:22Z</time>
      </trkpt>
      <trkpt lat="46.45702" lon="-1.68126">
        <ele>67</ele>
        <time>2019-10-25T14:24:53Z</time>
      </trkpt>
      <trkpt lat="46.45729" lon="-1.6809">
        <ele>67</ele>
        <time>2019-10-25T14:25:24Z</time>
      </trkpt>
      <trkpt lat="46.45759" lon="-1.68055">
        <ele>65</ele>
        <time>2019-10-25T14:25:54Z</time>
      </trkpt>
      <trkpt lat="46.45781" lon="-1.68029">
        <ele>67</ele>
        <time>2019-10-25T14:26:19Z</time>
      </trkpt>
      <trkpt lat="46.45818" lon="-1.68041">
        <ele>65</ele>
        <time>2019-10-25T14:26:52Z</time>
      </trkpt>
      <trkpt lat="46.45856" lon="-1.68054">
        <ele>61</ele>
        <time>2019-10-25T14:27:27Z</time>
      </trkpt>
      <trkpt lat="46.45892" lon="-1.68074">
        <ele>63</ele>
        <time>2019-10-25T14:27:52Z</time>
      </trkpt>
      <trkpt lat="46.45907" lon="-1.6811">
        <ele>63</ele>
        <time>2019-10-25T14:28:32Z</time>
      </trkpt>
      <trkpt lat="46.45933" lon="-1.68148">
        <ele>65</ele>
        <time>2019-10-25T14:29:05Z</time>
      </trkpt>
      <trkpt lat="46.45961" lon="-1.68186">
        <ele>64</ele>
        <time>2019-10-25T14:29:38Z</time>
      </trkpt>
      <trkpt lat="46.45988" lon="-1.68218">
        <ele>23.8</ele>
        <time>2019-10-25T14:30:03Z</time>
      </trkpt>
      <trkpt lat="46.46003" lon="-1.6817">
        <ele>74</ele>
        <time>2019-10-25T14:30:34Z</time>
      </trkpt>
      <trkpt lat="46.46017" lon="-1.68118">
        <ele>69</ele>
        <time>2019-10-25T14:31:05Z</time>
      </trkpt>
      <trkpt lat="46.46054" lon="-1.67975">
        <ele>69</ele>
        <time>2019-10-25T14:31:39Z</time>
      </trkpt>
      <trkpt lat="46.46091" lon="-1.67825">
        <ele>26.8</ele>
        <time>2019-10-25T14:32:05Z</time>
      </trkpt>
      <trkpt lat="46.46105" lon="-1.67774">
        <ele>26.6</ele>
        <time>2019-10-25T14:32:36Z</time>
      </trkpt>
      <trkpt lat="46.46125" lon="-1.67699">
        <ele>76</ele>
        <time>2019-10-25T14:33:07Z</time>
      </trkpt>
      <trkpt lat="46.46131" lon="-1.67672">
        <ele>27</ele>
        <time>2019-10-25T14:33:38Z</time>
      </trkpt>
      <trkpt lat="46.46116" lon="-1.67672">
        <ele>26.4</ele>
        <time>2019-10-25T14:34:05Z</time>
      </trkpt>
      <trkpt lat="46.46024" lon="-1.67671">
        <ele>26.6</ele>
        <time>2019-10-25T14:34:36Z</time>
      </trkpt>
      <trkpt lat="46.45963" lon="-1.67662">
        <ele>78</ele>
        <time>2019-10-25T14:35:08Z</time>
      </trkpt>
      <trkpt lat="46.45923" lon="-1.67665">
        <ele>79</ele>
        <time>2019-10-25T14:35:40Z</time>
      </trkpt>
      <trkpt lat="46.45893" lon="-1.67666">
        <ele>73</ele>
        <time>2019-10-25T14:36:07Z</time>
      </trkpt>
      <trkpt lat="46.45857" lon="-1.67652">
        <ele>73</ele>
        <time>2019-10-25T14:36:43Z</time>
      </trkpt>
      <trkpt lat="46.45818" lon="-1.67646">
        <ele>73</ele>
        <time>2019-10-25T14:37:19Z</time>
      </trkpt>
      <trkpt lat="46.45779" lon="-1.67635">
        <ele>72</ele>
        <time>2019-10-25T14:37:41Z</time>
      </trkpt>
      <trkpt lat="46.45752" lon="-1.67634">
        <ele>70</ele>
        <time>2019-10-25T14:38:09Z</time>
      </trkpt>
      <trkpt lat="46.45713" lon="-1.67627">
        <ele>74</ele>
        <time>2019-10-25T14:38:40Z</time>
      </trkpt>
      <trkpt lat="46.45677" lon="-1.67623">
        <ele>75</ele>
        <time>2019-10-25T14:39:13Z</time>
      </trkpt>
      <trkpt lat="46.45649" lon="-1.67631">
        <ele>75</ele>
        <time>2019-10-25T14:39:42Z</time>
      </trkpt>
      <trkpt lat="46.45613" lon="-1.6765">
        <ele>68</ele>
        <time>2019-10-25T14:40:04Z</time>
      </trkpt>
      <trkpt lat="46.45577" lon="-1.67666">
        <ele>70</ele>
        <time>2019-10-25T14:40:58Z</time>
      </trkpt>
      <trkpt lat="46.45553" lon="-1.67678">
        <ele>71</ele>
        <time>2019-10-25T14:41:17Z</time>
      </trkpt>
      <trkpt lat="46.45524" lon="-1.67689">
        <ele>70</ele>
        <time>2019-10-25T14:41:44Z</time>
      </trkpt>
      <trkpt lat="46.45487" lon="-1.67696">
        <ele>70</ele>
        <time>2019-10-25T14:42:16Z</time>
      </trkpt>
      <trkpt lat="46.45449" lon="-1.67695">
        <ele>72</ele>
        <time>2019-10-25T14:43:05Z</time>
      </trkpt>
      <trkpt lat="46.45411" lon="-1.67694">
        <ele>72</ele>
        <time>2019-10-25T14:43:37Z</time>
      </trkpt>
      <trkpt lat="46.45382" lon="-1.67694">
        <ele>72</ele>
        <time>2019-10-25T14:44:22Z</time>
      </trkpt>
      <trkpt lat="46.45343" lon="-1.67694">
        <ele>71</ele>
        <time>2019-10-25T14:45:13Z</time>
      </trkpt>
      <trkpt lat="46.45305" lon="-1.67693">
        <ele>70</ele>
        <time>2019-10-25T14:45:49Z</time>
      </trkpt>
      <trkpt lat="46.45287" lon="-1.67646">
        <ele>72</ele>
        <time>2019-10-25T14:46:22Z</time>
      </trkpt>
      <trkpt lat="46.45277" lon="-1.67606">
        <ele>74</ele>
        <time>2019-10-25T14:46:48Z</time>
      </trkpt>
      <trkpt lat="46.45264" lon="-1.67552">
        <ele>70</ele>
        <time>2019-10-25T14:47:30Z</time>
      </trkpt>
      <trkpt lat="46.45255" lon="-1.67499">
        <ele>71</ele>
        <time>2019-10-25T14:48:04Z</time>
      </trkpt>
      <trkpt lat="46.45247" lon="-1.67458">
        <ele>71</ele>
        <time>2019-10-25T14:48:31Z</time>
      </trkpt>
      <trkpt lat="46.45237" lon="-1.67406">
        <ele>70</ele>
        <time>2019-10-25T14:49:05Z</time>
      </trkpt>
      <trkpt lat="46.45236" lon="-1.67349">
        <ele>72</ele>
        <time>2019-10-25T14:49:39Z</time>
      </trkpt>
      <trkpt lat="46.45236" lon="-1.67293">
        <ele>70</ele>
        <time>2019-10-25T14:50:10Z</time>
      </trkpt>
      <trkpt lat="46.45239" lon="-1.67251">
        <ele>73</ele>
        <time>2019-10-25T14:50:37Z</time>
      </trkpt>
      <trkpt lat="46.45241" lon="-1.67198">
        <ele>72</ele>
        <time>2019-10-25T14:51:10Z</time>
      </trkpt>
      <trkpt lat="46.45243" lon="-1.67144">
        <ele>70</ele>
        <time>2019-10-25T14:51:46Z</time>
      </trkpt>
      <trkpt lat="46.45247" lon="-1.67089">
        <ele>69</ele>
        <time>2019-10-25T14:52:18Z</time>
      </trkpt>
      <trkpt lat="46.45248" lon="-1.67048">
        <ele>69</ele>
        <time>2019-10-25T14:52:43Z</time>
      </trkpt>
      <trkpt lat="46.45246" lon="-1.66992">
        <ele>69</ele>
        <time>2019-10-25T14:53:13Z</time>
      </trkpt>
      <trkpt lat="46.45239" lon="-1.66939">
        <ele>66</ele>
        <time>2019-10-25T14:53:45Z</time>
      </trkpt>
      <trkpt lat="46.45226" lon="-1.66886">
        <ele>65</ele>
        <time>2019-10-25T14:54:17Z</time>
      </trkpt>
      <trkpt lat="46.45211" lon="-1.6685">
        <ele>66</ele>
        <time>2019-10-25T14:54:42Z</time>
      </trkpt>
      <trkpt lat="46.45191" lon="-1.66805">
        <ele>67</ele>
        <time>2019-10-25T14:55:36Z</time>
      </trkpt>
      <trkpt lat="46.45168" lon="-1.66758">
        <ele>63</ele>
        <time>2019-10-25T14:55:59Z</time>
      </trkpt>
      <trkpt lat="46.45151" lon="-1.66706">
        <ele>66</ele>
        <time>2019-10-25T14:56:21Z</time>
      </trkpt>
      <trkpt lat="46.45141" lon="-1.66668">
        <ele>64</ele>
        <time>2019-10-25T14:56:56Z</time>
      </trkpt>
      <trkpt lat="46.45125" lon="-1.66617">
        <ele>61</ele>
        <time>2019-10-25T14:57:35Z</time>
      </trkpt>
      <trkpt lat="46.45104" lon="-1.66573">
        <ele>57</ele>
        <time>2019-10-25T14:58:09Z</time>
      </trkpt>
      <trkpt lat="46.45095" lon="-1.66547">
        <ele>57</ele>
        <time>2019-10-25T14:58:36Z</time>
      </trkpt>
      <trkpt lat="46.45084" lon="-1.66509">
        <ele>60</ele>
        <time>2019-10-25T14:59:11Z</time>
      </trkpt>
      <trkpt lat="46.45065" lon="-1.66462">
        <ele>61</ele>
        <time>2019-10-25T14:59:45Z</time>
      </trkpt>
      <trkpt lat="46.45042" lon="-1.66417">
        <ele>62</ele>
        <time>2019-10-25T15:00:16Z</time>
      </trkpt>
      <trkpt lat="46.45023" lon="-1.66387">
        <ele>58</ele>
        <time>2019-10-25T15:00:37Z</time>
      </trkpt>
      <trkpt lat="46.45013" lon="-1.66356">
        <ele>55</ele>
        <time>2019-10-25T15:01:10Z</time>
      </trkpt>
      <trkpt lat="46.45003" lon="-1.66306">
        <ele>52</ele>
        <time>2019-10-25T15:01:41Z</time>
      </trkpt>
      <trkpt lat="46.44999" lon="-1.66275">
        <ele>54</ele>
        <time>2019-10-25T15:02:13Z</time>
      </trkpt>
      <trkpt lat="46.44986" lon="-1.6624">
        <ele>54</ele>
        <time>2019-10-25T15:02:42Z</time>
      </trkpt>
      <trkpt lat="46.4496" lon="-1.66215">
        <ele>51</ele>
        <time>2019-10-25T15:03:15Z</time>
      </trkpt>
      <trkpt lat="46.44957" lon="-1.66175">
        <ele>51</ele>
        <time>2019-10-25T15:03:50Z</time>
      </trkpt>
      <trkpt lat="46.44941" lon="-1.6615">
        <ele>57</ele>
        <time>2019-10-25T15:04:28Z</time>
      </trkpt>
      <trkpt lat="46.44942" lon="-1.66122">
        <ele>58</ele>
        <time>2019-10-25T15:04:44Z</time>
      </trkpt>
      <trkpt lat="46.44957" lon="-1.66076">
        <ele>57</ele>
        <time>2019-10-25T15:06:04Z</time>
      </trkpt>
      <trkpt lat="46.44995" lon="-1.66082">
        <ele>58</ele>
        <time>2019-10-25T12:27:31Z</time>
      </trkpt>
      <trkpt lat="46.45033" lon="-1.66088">
        <ele>59</ele>
        <time>2019-10-25T12:28:44Z</time>
      </trkpt>
      <trkpt lat="46.45062" lon="-1.66092">
        <ele>57</ele>
        <time>2019-10-25T12:29:20Z</time>
      </trkpt>
      <trkpt lat="46.45099" lon="-1.66097">
        <ele>62</ele>
        <time>2019-10-25T12:30:01Z</time>
      </trkpt>
      <trkpt lat="46.45137" lon="-1.66096">
        <ele>61</ele>
        <time>2019-10-25T12:30:35Z</time>
      </trkpt>
      <trkpt lat="46.45165" lon="-1.66094">
        <ele>62</ele>
        <time>2019-10-25T12:31:00Z</time>
      </trkpt>
      <trkpt lat="46.45203" lon="-1.66087">
        <ele>64</ele>
        <time>2019-10-25T12:31:36Z</time>
      </trkpt>
      <trkpt lat="46.45239" lon="-1.66063">
        <ele>64</ele>
        <time>2019-10-25T12:32:18Z</time>
      </trkpt>
      <trkpt lat="46.4527" lon="-1.66033">
        <ele>63</ele>
        <time>2019-10-25T12:32:46Z</time>
      </trkpt>
      <trkpt lat="46.45292" lon="-1.66006">
        <ele>64</ele>
        <time>2019-10-25T12:33:15Z</time>
      </trkpt>
      <trkpt lat="46.45293" lon="-1.6595">
        <ele>66</ele>
        <time>2019-10-25T12:33:47Z</time>
      </trkpt>
      <trkpt lat="46.4529" lon="-1.65894">
        <ele>64</ele>
        <time>2019-10-25T12:34:16Z</time>
      </trkpt>
      <trkpt lat="46.45288" lon="-1.65839">
        <ele>64</ele>
        <time>2019-10-25T12:34:50Z</time>
      </trkpt>
      <trkpt lat="46.45288" lon="-1.65797">
        <ele>64</ele>
        <time>2019-10-25T12:35:16Z</time>
      </trkpt>
      <trkpt lat="46.45286" lon="-1.65742">
        <ele>62</ele>
        <time>2019-10-25T12:35:48Z</time>
      </trkpt>
      <trkpt lat="46.45285" lon="-1.65687">
        <ele>61</ele>
        <time>2019-10-25T12:36:20Z</time>
      </trkpt>
      <trkpt lat="46.45282" lon="-1.65633">
        <ele>60</ele>
      </trkpt>
      <trkpt lat="46.4528" lon="-1.65591">
        <ele>58</ele>
      </trkpt>
      <trkpt lat="46.45277" lon="-1.65553">
        <ele>58</ele>
      </trkpt>
      <trkpt lat="46.45276" lon="-1.65521">
        <ele>57</ele>
      </trkpt>
      <trkpt lat="46.45272" lon="-1.65481">
        <ele>56</ele>
      </trkpt>
      <trkpt lat="46.45264" lon="-1.65423">
        <ele>57</ele>
      </trkpt>
      <trkpt lat="46.45285" lon="-1.65418">
        <ele>51</ele>
      </trkpt>
      <trkpt lat="46.45321" lon="-1.65436">
        <ele>47</ele>
      </trkpt>
      <trkpt lat="46.45343" lon="-1.65463">
        <ele>48</ele>
      </trkpt>
      <trkpt lat="46.45374" lon="-1.65496">
        <ele>47</ele>
      </trkpt>
      <trkpt lat="46.45402" lon="-1.65536">
        <ele>49</ele>
      </trkpt>
      <trkpt lat="46.4543" lon="-1.65571">
        <ele>59</ele>
      </trkpt>
      <trkpt lat="46.45451" lon="-1.65598">
        <ele>60</ele>
      </trkpt>
      <trkpt lat="46.45489" lon="-1.65612">
        <ele>59</ele>
      </trkpt>
      <trkpt lat="46.45526" lon="-1.65622">
        <ele>59</ele>
      </trkpt>
      <trkpt lat="46.45564" lon="-1.65623">
        <ele>58</ele>
      </trkpt>
      <trkpt lat="46.45591" lon="-1.65632">
        <ele>56</ele>
      </trkpt>
      <trkpt lat="46.45627" lon="-1.65652">
        <ele>58</ele>
      </trkpt>
      <trkpt lat="46.45659" lon="-1.65682">
        <ele>58</ele>
      </trkpt>
      <trkpt lat="46.45693" lon="-1.65697">
        <ele>62</ele>
      </trkpt>
      <trkpt lat="46.45701" lon="-1.6569">
        <ele>63</ele>
      </trkpt>
      <trkpt lat="46.45703" lon="-1.65691">
        <ele>68</ele>
      </trkpt>
      <trkpt lat="46.45749" lon="-1.65491">
        <ele>23.7</ele>
      </trkpt>
      <trkpt lat="46.45757" lon="-1.65484">
        <ele>24.6</ele>
      </trkpt>
    </trkseg>
  </trk>
</gpx>